CheckWX is a tool to help pilots better visualize weather data.  It is not intended as a substitute for an official pre-flight weather briefing.

16:03:53 UTC

KCXW METAR
Cantrell Field Airport
Conway, Arkansas, USA
Current

9 mins ago

KCXW 111555Z AUTO 00000KT 10SM CLR 02/M01 A3059 RMK A01
Observed
Dec-11 @ 15:55 UTC
Visibility
10 SM
Flight Rules
VFR
Cloud Levels
  • Clear skies
Temperature
C / 36°F
Dewpoint
-1°C / 30°F
Humidity
81%
Altimeter
30.59" Hg
Pressure
1035.92 hPa
Previous

29 mins ago

KCXW 111535Z AUTO 00000KT 10SM CLR 01/M01 A3059 RMK A01
Observed
Dec-11 @ 15:35 UTC
Visibility
10 SM
Flight Rules
VFR
Cloud Levels
  • Clear skies
Temperature
C / 34°F
Dewpoint
-1°C / 30°F
Humidity
87%
Altimeter
30.59" Hg
Pressure
1035.92 hPa
Previous

49 mins ago

KCXW 111515Z AUTO 00000KT 10SM CLR 01/M02 A3059 RMK A01
Observed
Dec-11 @ 15:15 UTC
Visibility
10 SM
Flight Rules
VFR
Cloud Levels
  • Clear skies
Temperature
C / 34°F
Dewpoint
-2°C / 28°F
Humidity
81%
Altimeter
30.59" Hg
Pressure
1035.92 hPa